Marne, Iowa
Current Conditions -  °F | °C
As of 8:55 PM on Tuesday 21 Oct 2014 (Local Time) from KAIO Reporting Station
Haze Haze  
Wind Chill: 57°   Ceiling: Unl
Heat Index: 57°   Visibility: 3mi
Dew Point: 45°   Wind: 9mph
Humidity: 63%   Direction: 110°ESE
Pressure: 30.09"   Gusts: NA
Location:  41.45°N, 95.11°W
Report Text: KAIO 220155Z AUTO 11008KT 3SM HZ FEW039 14/07 A3009 RMK AO2
Loading
Personal Weather Stations






























Interactive Weather Map
Tropical Storm Tracking
New forecast layout! Learn more

10-Day Weather Forecast

Advertisements
Track Severe Weather on mobile